sensor_id;sensor_type;location;lat;lon;timestamp;temperature;humidity
792;DHT22;379;49.022;12.148;2023-05-07T00:02:15;10.40;99.90
792;DHT22;379;49.022;12.148;2023-05-07T00:04:43;10.40;99.90
792;DHT22;379;49.022;12.148;2023-05-07T00:07:10;10.50;99.90
792;DHT22;379;49.022;12.148;2023-05-07T00:09:37;10.50;99.90
792;DHT22;379;49.022;12.148;2023-05-07T00:12:04;10.50;99.90
792;DHT22;379;49.022;12.148;2023-05-07T00:14:31;10.60;99.90
792;DHT22;379;49.022;12.148;2023-05-07T00:16:57;10.70;99.90
792;DHT22;379;49.022;12.148;2023-05-07T00:19:24;10.70;99.90
792;DHT22;379;49.022;12.148;2023-05-07T00:21:52;10.70;99.90
792;DHT22;379;49.022;12.148;2023-05-07T00:24:21;10.70;99.90
792;DHT22;379;49.022;12.148;2023-05-07T00:26:47;10.70;99.90
792;DHT22;379;49.022;12.148;2023-05-07T00:29:14;10.70;99.90
792;DHT22;379;49.022;12.148;2023-05-07T00:31:41;10.70;99.90
792;DHT22;379;49.022;12.148;2023-05-07T00:34:08;10.70;99.90
792;DHT22;379;49.022;12.148;2023-05-07T00:36:34;10.70;99.90
792;DHT22;379;49.022;12.148;2023-05-07T00:39:02;10.80;99.90
792;DHT22;379;49.022;12.148;2023-05-07T00:41:30;10.80;99.90
792;DHT22;379;49.022;12.148;2023-05-07T00:43:57;10.80;99.90
792;DHT22;379;49.022;12.148;2023-05-07T00:46:24;10.80;99.90
792;DHT22;379;49.022;12.148;2023-05-07T00:48:51;10.90;99.90
792;DHT22;379;49.022;12.148;2023-05-07T00:51:18;10.90;99.90
792;DHT22;379;49.022;12.148;2023-05-07T00:53:45;10.90;99.90
792;DHT22;379;49.022;12.148;2023-05-07T00:56:14;10.90;99.90
792;DHT22;379;49.022;12.148;2023-05-07T00:58:41;10.90;99.90
792;DHT22;379;49.022;12.148;2023-05-07T01:01:07;10.90;99.90
792;DHT22;379;49.022;12.148;2023-05-07T01:03:34;10.90;99.90
792;DHT22;379;49.022;12.148;2023-05-07T01:06:02;10.90;99.90
792;DHT22;379;49.022;12.148;2023-05-07T01:08:30;10.90;99.90
792;DHT22;379;49.022;12.148;2023-05-07T01:10:57;10.80;99.90
792;DHT22;379;49.022;12.148;2023-05-07T01:13:26;10.80;99.90
792;DHT22;379;49.022;12.148;2023-05-07T01:15:53;10.80;99.90
792;DHT22;379;49.022;12.148;2023-05-07T01:18:20;10.80;99.90
792;DHT22;379;49.022;12.148;2023-05-07T01:20:47;10.80;99.90
792;DHT22;379;49.022;12.148;2023-05-07T01:23:15;10.80;99.90
792;DHT22;379;49.022;12.148;2023-05-07T01:25:42;10.70;99.90
792;DHT22;379;49.022;12.148;2023-05-07T01:28:09;10.70;99.90
792;DHT22;379;49.022;12.148;2023-05-07T01:30:36;10.60;99.90
792;DHT22;379;49.022;12.148;2023-05-07T01:33:08;10.50;99.90
792;DHT22;379;49.022;12.148;2023-05-07T01:35:38;10.50;99.90
792;DHT22;379;49.022;12.148;2023-05-07T01:38:07;10.40;99.90
792;DHT22;379;49.022;12.148;2023-05-07T01:40:35;10.40;99.90
792;DHT22;379;49.022;12.148;2023-05-07T01:43:03;10.30;99.90
792;DHT22;379;49.022;12.148;2023-05-07T01:45:30;10.10;99.90
792;DHT22;379;49.022;12.148;2023-05-07T01:47:58;10.10;99.90
792;DHT22;379;49.022;12.148;2023-05-07T01:50:26;10.10;99.90
792;DHT22;379;49.022;12.148;2023-05-07T01:52:53;10.10;99.90
792;DHT22;379;49.022;12.148;2023-05-07T01:55:20;10.10;99.90
792;DHT22;379;49.022;12.148;2023-05-07T01:57:48;10.00;99.90
792;DHT22;379;49.022;12.148;2023-05-07T02:00:15;9.90;99.90
792;DHT22;379;49.022;12.148;2023-05-07T02:02:43;9.80;99.90
792;DHT22;379;49.022;12.148;2023-05-07T02:05:09;9.80;99.90
792;DHT22;379;49.022;12.148;2023-05-07T02:07:36;9.80;99.90
792;DHT22;379;49.022;12.148;2023-05-07T02:10:03;9.90;99.90
792;DHT22;379;49.022;12.148;2023-05-07T02:12:30;10.00;99.90
792;DHT22;379;49.022;12.148;2023-05-07T02:14:58;10.00;99.90
792;DHT22;379;49.022;12.148;2023-05-07T02:17:25;10.10;99.90
792;DHT22;379;49.022;12.148;2023-05-07T02:19:51;10.10;99.90
792;DHT22;379;49.022;12.148;2023-05-07T02:22:18;10.20;99.90
792;DHT22;379;49.022;12.148;2023-05-07T02:24:45;10.20;99.90
792;DHT22;379;49.022;12.148;2023-05-07T02:27:12;10.20;99.90
792;DHT22;379;49.022;12.148;2023-05-07T02:29:38;10.20;99.90
792;DHT22;379;49.022;12.148;2023-05-07T02:32:06;10.20;99.90
792;DHT22;379;49.022;12.148;2023-05-07T02:34:33;10.10;99.90
792;DHT22;379;49.022;12.148;2023-05-07T02:37:00;10.10;99.90
792;DHT22;379;49.022;12.148;2023-05-07T02:39:26;10.10;99.90
792;DHT22;379;49.022;12.148;2023-05-07T02:41:53;10.00;99.90
792;DHT22;379;49.022;12.148;2023-05-07T02:44:20;9.90;99.90
792;DHT22;379;49.022;12.148;2023-05-07T02:46:47;9.70;99.90
792;DHT22;379;49.022;12.148;2023-05-07T02:49:15;9.70;99.90
792;DHT22;379;49.022;12.148;2023-05-07T02:51:41;9.70;99.90
792;DHT22;379;49.022;12.148;2023-05-07T02:54:08;9.70;99.90
792;DHT22;379;49.022;12.148;2023-05-07T02:56:35;9.70;99.90
792;DHT22;379;49.022;12.148;2023-05-07T02:59:01;9.70;99.90
792;DHT22;379;49.022;12.148;2023-05-07T03:01:28;9.70;99.90
792;DHT22;379;49.022;12.148;2023-05-07T03:03:55;9.60;99.90
792;DHT22;379;49.022;12.148;2023-05-07T03:06:23;9.60;99.90
792;DHT22;379;49.022;12.148;2023-05-07T03:08:50;9.40;99.90
792;DHT22;379;49.022;12.148;2023-05-07T03:11:17;9.30;99.90
792;DHT22;379;49.022;12.148;2023-05-07T03:13:44;9.30;99.90
792;DHT22;379;49.022;12.148;2023-05-07T03:16:10;9.20;99.90
792;DHT22;379;49.022;12.148;2023-05-07T03:18:37;9.20;99.90
792;DHT22;379;49.022;12.148;2023-05-07T03:21:04;9.20;99.90
792;DHT22;379;49.022;12.148;2023-05-07T03:23:32;9.20;99.90
792;DHT22;379;49.022;12.148;2023-05-07T03:25:59;9.20;99.90
792;DHT22;379;49.022;12.148;2023-05-07T03:28:25;9.20;99.90
792;DHT22;379;49.022;12.148;2023-05-07T03:30:52;9.20;99.90
792;DHT22;379;49.022;12.148;2023-05-07T03:33:19;9.40;99.90
792;DHT22;379;49.022;12.148;2023-05-07T03:35:46;9.60;99.90
792;DHT22;379;49.022;12.148;2023-05-07T03:38:12;9.80;99.90
792;DHT22;379;49.022;12.148;2023-05-07T03:40:40;9.90;99.90
792;DHT22;379;49.022;12.148;2023-05-07T03:43:07;9.90;99.90
792;DHT22;379;49.022;12.148;2023-05-07T03:45:34;10.00;99.90
792;DHT22;379;49.022;12.148;2023-05-07T03:48:01;10.00;99.90
792;DHT22;379;49.022;12.148;2023-05-07T03:50:27;10.00;99.90
792;DHT22;379;49.022;12.148;2023-05-07T03:52:54;10.00;99.90
792;DHT22;379;49.022;12.148;2023-05-07T03:55:21;10.00;99.90
792;DHT22;379;49.022;12.148;2023-05-07T03:57:49;10.00;99.90
792;DHT22;379;49.022;12.148;2023-05-07T04:00:16;10.00;99.90
792;DHT22;379;49.022;12.148;2023-05-07T04:02:43;10.00;99.90
792;DHT22;379;49.022;12.148;2023-05-07T04:05:10;10.10;99.90
792;DHT22;379;49.022;12.148;2023-05-07T04:07:36;10.10;99.90
792;DHT22;379;49.022;12.148;2023-05-07T04:10:04;10.10;99.90
792;DHT22;379;49.022;12.148;2023-05-07T04:12:31;10.20;99.90
792;DHT22;379;49.022;12.148;2023-05-07T04:14:59;10.30;99.90
792;DHT22;379;49.022;12.148;2023-05-07T04:17:25;10.40;99.90
792;DHT22;379;49.022;12.148;2023-05-07T04:19:52;10.40;99.90
792;DHT22;379;49.022;12.148;2023-05-07T04:22:19;10.50;99.90
792;DHT22;379;49.022;12.148;2023-05-07T04:24:45;10.60;99.90
792;DHT22;379;49.022;12.148;2023-05-07T04:27:12;10.70;99.90
792;DHT22;379;49.022;12.148;2023-05-07T04:29:39;10.90;99.90
792;DHT22;379;49.022;12.148;2023-05-07T04:32:09;11.00;99.90
792;DHT22;379;49.022;12.148;2023-05-07T04:34:35;11.10;99.90
792;DHT22;379;49.022;12.148;2023-05-07T04:37:02;11.20;99.90
792;DHT22;379;49.022;12.148;2023-05-07T04:39:29;11.40;99.90
792;DHT22;379;49.022;12.148;2023-05-07T04:41:55;11.60;99.90
792;DHT22;379;49.022;12.148;2023-05-07T04:44:22;11.80;99.90
792;DHT22;379;49.022;12.148;2023-05-07T04:46:50;12.00;99.90
792;DHT22;379;49.022;12.148;2023-05-07T04:49:18;12.40;99.90
792;DHT22;379;49.022;12.148;2023-05-07T04:51:45;12.80;99.90
792;DHT22;379;49.022;12.148;2023-05-07T04:54:11;13.20;99.90
792;DHT22;379;49.022;12.148;2023-05-07T04:56:38;13.70;99.90
792;DHT22;379;49.022;12.148;2023-05-07T04:59:05;14.10;99.90
792;DHT22;379;49.022;12.148;2023-05-07T05:01:32;14.30;99.90
792;DHT22;379;49.022;12.148;2023-05-07T05:03:58;14.70;99.90
792;DHT22;379;49.022;12.148;2023-05-07T05:06:28;15.30;99.90
792;DHT22;379;49.022;12.148;2023-05-07T05:08:55;16.10;99.90
792;DHT22;379;49.022;12.148;2023-05-07T05:11:21;16.70;99.90
792;DHT22;379;49.022;12.148;2023-05-07T05:13:49;17.30;99.90
792;DHT22;379;49.022;12.148;2023-05-07T05:16:15;18.00;98.60
792;DHT22;379;49.022;12.148;2023-05-07T05:18:42;18.70;95.00
792;DHT22;379;49.022;12.148;2023-05-07T05:21:09;19.20;91.40
792;DHT22;379;49.022;12.148;2023-05-07T05:23:37;19.60;87.80
792;DHT22;379;49.022;12.148;2023-05-07T05:26:04;19.70;84.40
792;DHT22;379;49.022;12.148;2023-05-07T05:28:31;19.60;82.60
792;DHT22;379;49.022;12.148;2023-05-07T05:30:58;19.60;80.50
792;DHT22;379;49.022;12.148;2023-05-07T05:33:24;19.80;78.60
792;DHT22;379;49.022;12.148;2023-05-07T05:35:51;20.00;77.00
792;DHT22;379;49.022;12.148;2023-05-07T05:38:18;20.00;76.50
792;DHT22;379;49.022;12.148;2023-05-07T05:40:47;19.60;75.80
792;DHT22;379;49.022;12.148;2023-05-07T05:43:14;19.00;76.20
792;DHT22;379;49.022;12.148;2023-05-07T05:45:41;18.50;77.20
792;DHT22;379;49.022;12.148;2023-05-07T05:48:08;18.40;77.10
792;DHT22;379;49.022;12.148;2023-05-07T05:50:34;18.50;79.70
792;DHT22;379;49.022;12.148;2023-05-07T05:53:02;19.00;79.80
792;DHT22;379;49.022;12.148;2023-05-07T05:55:29;19.70;77.30
792;DHT22;379;49.022;12.148;2023-05-07T05:57:59;20.10;74.80
792;DHT22;379;49.022;12.148;2023-05-07T06:00:26;20.30;73.00
792;DHT22;379;49.022;12.148;2023-05-07T06:02:52;20.60;73.10
792;DHT22;379;49.022;12.148;2023-05-07T06:05:19;21.00;70.40
792;DHT22;379;49.022;12.148;2023-05-07T06:07:46;21.30;68.60
792;DHT22;379;49.022;12.148;2023-05-07T06:10:13;21.70;67.70
792;DHT22;379;49.022;12.148;2023-05-07T06:12:39;22.00;68.10
792;DHT22;379;49.022;12.148;2023-05-07T06:15:08;22.40;68.00
792;DHT22;379;49.022;12.148;2023-05-07T06:17:35;22.80;66.40
792;DHT22;379;49.022;12.148;2023-05-07T06:20:02;23.10;65.20
792;DHT22;379;49.022;12.148;2023-05-07T06:22:29;23.40;63.30
792;DHT22;379;49.022;12.148;2023-05-07T06:24:55;23.70;61.60
792;DHT22;379;49.022;12.148;2023-05-07T06:27:22;23.90;60.30
792;DHT22;379;49.022;12.148;2023-05-07T06:29:49;24.00;59.90
792;DHT22;379;49.022;12.148;2023-05-07T06:32:18;24.30;59.40
792;DHT22;379;49.022;12.148;2023-05-07T06:34:45;24.60;58.90
792;DHT22;379;49.022;12.148;2023-05-07T06:37:12;24.80;57.90
792;DHT22;379;49.022;12.148;2023-05-07T06:39:39;25.00;57.40
792;DHT22;379;49.022;12.148;2023-05-07T06:42:06;25.20;56.80
792;DHT22;379;49.022;12.148;2023-05-07T06:44:33;25.50;56.00
792;DHT22;379;49.022;12.148;2023-05-07T06:46:59;25.80;54.90
792;DHT22;379;49.022;12.148;2023-05-07T06:49:28;26.20;54.30
792;DHT22;379;49.022;12.148;2023-05-07T06:51:55;26.80;53.40
792;DHT22;379;49.022;12.148;2023-05-07T06:54:22;27.20;52.40
792;DHT22;379;49.022;12.148;2023-05-07T06:56:49;27.70;51.00
792;DHT22;379;49.022;12.148;2023-05-07T06:59:16;28.20;51.60
792;DHT22;379;49.022;12.148;2023-05-07T07:01:45;28.50;50.50
792;DHT22;379;49.022;12.148;2023-05-07T07:04:12;28.80;49.20
792;DHT22;379;49.022;12.148;2023-05-07T07:06:40;28.70;48.00
792;DHT22;379;49.022;12.148;2023-05-07T07:09:06;28.10;48.60
792;DHT22;379;49.022;12.148;2023-05-07T07:11:33;27.20;48.70
792;DHT22;379;49.022;12.148;2023-05-07T07:14:00;26.10;48.90
792;DHT22;379;49.022;12.148;2023-05-07T07:16:27;24.90;50.60
792;DHT22;379;49.022;12.148;2023-05-07T07:18:54;24.00;52.20
792;DHT22;379;49.022;12.148;2023-05-07T07:21:20;23.30;54.20
792;DHT22;379;49.022;12.148;2023-05-07T07:23:48;22.90;55.00
792;DHT22;379;49.022;12.148;2023-05-07T07:26:15;22.80;56.30
792;DHT22;379;49.022;12.148;2023-05-07T07:28:43;23.10;55.90
792;DHT22;379;49.022;12.148;2023-05-07T07:31:10;23.10;55.70
792;DHT22;379;49.022;12.148;2023-05-07T07:33:36;22.90;55.00
792;DHT22;379;49.022;12.148;2023-05-07T07:36:04;22.40;55.90
792;DHT22;379;49.022;12.148;2023-05-07T07:38:31;22.50;57.20
792;DHT22;379;49.022;12.148;2023-05-07T07:40:59;22.80;57.20
792;DHT22;379;49.022;12.148;2023-05-07T07:43:26;23.20;56.80
792;DHT22;379;49.022;12.148;2023-05-07T07:45:53;23.50;55.70
792;DHT22;379;49.022;12.148;2023-05-07T07:48:20;23.00;54.40
792;DHT22;379;49.022;12.148;2023-05-07T07:50:48;22.60;55.90
792;DHT22;379;49.022;12.148;2023-05-07T07:53:15;22.70;56.50
792;DHT22;379;49.022;12.148;2023-05-07T07:55:42;23.10;56.90
792;DHT22;379;49.022;12.148;2023-05-07T07:58:10;23.30;56.90
792;DHT22;379;49.022;12.148;2023-05-07T08:00:36;23.70;57.10
792;DHT22;379;49.022;12.148;2023-05-07T08:03:03;24.10;57.30
792;DHT22;379;49.022;12.148;2023-05-07T08:05:30;24.50;56.60
792;DHT22;379;49.022;12.148;2023-05-07T08:07:57;24.70;55.10
792;DHT22;379;49.022;12.148;2023-05-07T08:10:23;24.90;53.60
792;DHT22;379;49.022;12.148;2023-05-07T08:12:50;24.90;52.70
792;DHT22;379;49.022;12.148;2023-05-07T08:15:18;24.90;53.10
792;DHT22;379;49.022;12.148;2023-05-07T08:17:45;25.20;53.40
792;DHT22;379;49.022;12.148;2023-05-07T08:20:13;25.50;50.60
792;DHT22;379;49.022;12.148;2023-05-07T08:22:40;25.30;50.20
792;DHT22;379;49.022;12.148;2023-05-07T08:25:07;24.80;50.10
792;DHT22;379;49.022;12.148;2023-05-07T08:27:34;24.70;50.70
792;DHT22;379;49.022;12.148;2023-05-07T08:30:01;24.40;51.30
792;DHT22;379;49.022;12.148;2023-05-07T08:32:29;24.40;51.90
792;DHT22;379;49.022;12.148;2023-05-07T08:34:56;24.50;52.40
792;DHT22;379;49.022;12.148;2023-05-07T08:37:23;24.90;53.10
792;DHT22;379;49.022;12.148;2023-05-07T08:39:49;25.10;53.40
792;DHT22;379;49.022;12.148;2023-05-07T08:42:17;25.30;53.70
792;DHT22;379;49.022;12.148;2023-05-07T08:44:45;25.60;53.00
792;DHT22;379;49.022;12.148;2023-05-07T08:47:13;25.80;53.20
792;DHT22;379;49.022;12.148;2023-05-07T08:49:41;26.00;53.00
792;DHT22;379;49.022;12.148;2023-05-07T08:52:08;26.10;50.10
792;DHT22;379;49.022;12.148;2023-05-07T08:54:37;25.60;50.10
792;DHT22;379;49.022;12.148;2023-05-07T08:57:04;25.30;51.00
792;DHT22;379;49.022;12.148;2023-05-07T08:59:30;25.30;51.10
792;DHT22;379;49.022;12.148;2023-05-07T09:01:57;24.80;50.80
792;DHT22;379;49.022;12.148;2023-05-07T09:04:24;24.60;52.50
792;DHT22;379;49.022;12.148;2023-05-07T09:06:52;24.90;53.30
792;DHT22;379;49.022;12.148;2023-05-07T09:09:21;25.30;53.50
792;DHT22;379;49.022;12.148;2023-05-07T09:11:48;25.60;52.60
792;DHT22;379;49.022;12.148;2023-05-07T09:14:16;25.70;50.70
792;DHT22;379;49.022;12.148;2023-05-07T09:16:43;25.60;50.70
792;DHT22;379;49.022;12.148;2023-05-07T09:19:09;25.40;51.80
792;DHT22;379;49.022;12.148;2023-05-07T09:21:36;25.60;51.90
792;DHT22;379;49.022;12.148;2023-05-07T09:24:05;25.60;51.40
792;DHT22;379;49.022;12.148;2023-05-07T09:26:32;25.80;51.10
792;DHT22;379;49.022;12.148;2023-05-07T09:29:00;26.00;50.60
792;DHT22;379;49.022;12.148;2023-05-07T09:31:27;25.80;49.70
792;DHT22;379;49.022;12.148;2023-05-07T09:33:53;25.50;50.00
792;DHT22;379;49.022;12.148;2023-05-07T09:36:21;25.50;51.30
792;DHT22;379;49.022;12.148;2023-05-07T09:38:48;25.70;52.20
792;DHT22;379;49.022;12.148;2023-05-07T09:41:17;26.20;52.10
792;DHT22;379;49.022;12.148;2023-05-07T09:43:44;26.10;49.30
792;DHT22;379;49.022;12.148;2023-05-07T09:46:12;25.80;51.10
792;DHT22;379;49.022;12.148;2023-05-07T09:48:40;25.60;51.20
792;DHT22;379;49.022;12.148;2023-05-07T09:51:15;25.90;50.40
792;DHT22;379;49.022;12.148;2023-05-07T09:53:43;26.50;50.90
792;DHT22;379;49.022;12.148;2023-05-07T09:56:13;27.00;50.90
792;DHT22;379;49.022;12.148;2023-05-07T09:58:41;27.10;48.40
792;DHT22;379;49.022;12.148;2023-05-07T10:01:11;26.50;49.20
792;DHT22;379;49.022;12.148;2023-05-07T10:03:40;26.50;50.60
792;DHT22;379;49.022;12.148;2023-05-07T10:06:08;26.60;50.30
792;DHT22;379;49.022;12.148;2023-05-07T10:08:36;26.70;49.50
792;DHT22;379;49.022;12.148;2023-05-07T10:11:04;26.70;49.00
792;DHT22;379;49.022;12.148;2023-05-07T10:13:31;26.50;48.90
792;DHT22;379;49.022;12.148;2023-05-07T10:16:00;26.30;48.90
792;DHT22;379;49.022;12.148;2023-05-07T10:18:30;25.80;49.90
792;DHT22;379;49.022;12.148;2023-05-07T10:21:02;25.70;51.00
792;DHT22;379;49.022;12.148;2023-05-07T10:23:32;26.00;52.00
792;DHT22;379;49.022;12.148;2023-05-07T10:26:03;26.30;51.80
792;DHT22;379;49.022;12.148;2023-05-07T10:28:33;26.40;51.20
792;DHT22;379;49.022;12.148;2023-05-07T10:31:20;26.50;50.60
792;DHT22;379;49.022;12.148;2023-05-07T10:33:49;26.50;51.80
792;DHT22;379;49.022;12.148;2023-05-07T10:36:18;26.50;52.20
792;DHT22;379;49.022;12.148;2023-05-07T10:38:45;26.40;52.40
792;DHT22;379;49.022;12.148;2023-05-07T10:41:12;26.10;52.50
792;DHT22;379;49.022;12.148;2023-05-07T10:43:40;26.10;53.20
792;DHT22;379;49.022;12.148;2023-05-07T10:46:15;26.10;53.20
792;DHT22;379;49.022;12.148;2023-05-07T10:49:07;26.20;52.00
792;DHT22;379;49.022;12.148;2023-05-07T10:51:36;26.20;52.70
792;DHT22;379;49.022;12.148;2023-05-07T10:54:22;26.40;52.40
792;DHT22;379;49.022;12.148;2023-05-07T10:56:50;26.50;52.90
792;DHT22;379;49.022;12.148;2023-05-07T10:59:34;26.60;52.70
792;DHT22;379;49.022;12.148;2023-05-07T11:02:07;26.70;51.30
792;DHT22;379;49.022;12.148;2023-05-07T11:04:36;26.50;51.30
792;DHT22;379;49.022;12.148;2023-05-07T11:10:03;26.20;52.60
792;DHT22;379;49.022;12.148;2023-05-07T11:12:53;26.20;53.20
792;DHT22;379;49.022;12.148;2023-05-07T11:15:41;26.30;53.40
792;DHT22;379;49.022;12.148;2023-05-07T11:18:13;26.60;52.70
792;DHT22;379;49.022;12.148;2023-05-07T11:21:01;26.90;51.70
792;DHT22;379;49.022;12.148;2023-05-07T11:23:56;26.90;51.60
792;DHT22;379;49.022;12.148;2023-05-07T11:26:28;26.80;51.20
792;DHT22;379;49.022;12.148;2023-05-07T11:28:55;26.60;50.00
792;DHT22;379;49.022;12.148;2023-05-07T11:31:26;26.60;51.50
792;DHT22;379;49.022;12.148;2023-05-07T11:33:55;26.60;51.00
792;DHT22;379;49.022;12.148;2023-05-07T11:36:23;26.60;51.00
792;DHT22;379;49.022;12.148;2023-05-07T11:38:51;26.60;50.20
792;DHT22;379;49.022;12.148;2023-05-07T11:41:18;26.30;49.30
792;DHT22;379;49.022;12.148;2023-05-07T11:43:57;25.70;50.40
792;DHT22;379;49.022;12.148;2023-05-07T11:46:24;25.10;51.30
792;DHT22;379;49.022;12.148;2023-05-07T11:48:50;24.60;52.20
792;DHT22;379;49.022;12.148;2023-05-07T11:51:23;24.10;52.80
792;DHT22;379;49.022;12.148;2023-05-07T11:53:51;23.90;53.30
792;DHT22;379;49.022;12.148;2023-05-07T11:56:19;23.70;53.10
792;DHT22;379;49.022;12.148;2023-05-07T11:58:47;23.40;53.30
792;DHT22;379;49.022;12.148;2023-05-07T12:01:14;23.30;53.80
792;DHT22;379;49.022;12.148;2023-05-07T12:03:43;23.10;53.70
792;DHT22;379;49.022;12.148;2023-05-07T12:06:11;22.90;54.30
792;DHT22;379;49.022;12.148;2023-05-07T12:08:40;22.70;54.10
792;DHT22;379;49.022;12.148;2023-05-07T12:11:08;22.60;54.30
792;DHT22;379;49.022;12.148;2023-05-07T12:13:37;22.50;54.90
792;DHT22;379;49.022;12.148;2023-05-07T12:16:05;22.50;54.60
792;DHT22;379;49.022;12.148;2023-05-07T12:18:33;22.60;54.40
792;DHT22;379;49.022;12.148;2023-05-07T12:21:01;22.40;53.50
792;DHT22;379;49.022;12.148;2023-05-07T12:23:28;22.20;53.80
792;DHT22;379;49.022;12.148;2023-05-07T12:25:56;22.10;54.60
792;DHT22;379;49.022;12.148;2023-05-07T12:28:23;22.00;54.60
792;DHT22;379;49.022;12.148;2023-05-07T12:30:51;22.10;54.70
792;DHT22;379;49.022;12.148;2023-05-07T12:33:22;22.30;55.20
792;DHT22;379;49.022;12.148;2023-05-07T12:35:50;22.30;54.00
792;DHT22;379;49.022;12.148;2023-05-07T12:38:17;22.20;53.80
792;DHT22;379;49.022;12.148;2023-05-07T12:40:45;22.10;53.80
792;DHT22;379;49.022;12.148;2023-05-07T12:43:18;22.10;54.20
792;DHT22;379;49.022;12.148;2023-05-07T12:45:45;22.30;54.50
792;DHT22;379;49.022;12.148;2023-05-07T12:48:13;22.30;53.80
792;DHT22;379;49.022;12.148;2023-05-07T12:50:39;22.40;54.00
792;DHT22;379;49.022;12.148;2023-05-07T12:53:07;22.50;54.10
792;DHT22;379;49.022;12.148;2023-05-07T12:55:41;22.60;54.10
792;DHT22;379;49.022;12.148;2023-05-07T12:58:08;22.50;54.00
792;DHT22;379;49.022;12.148;2023-05-07T13:00:41;22.50;54.10
792;DHT22;379;49.022;12.148;2023-05-07T13:03:09;22.60;53.70
792;DHT22;379;49.022;12.148;2023-05-07T13:05:36;22.60;54.50
792;DHT22;379;49.022;12.148;2023-05-07T13:08:03;22.60;53.80
792;DHT22;379;49.022;12.148;2023-05-07T13:10:30;22.60;53.40
792;DHT22;379;49.022;12.148;2023-05-07T13:12:56;22.60;52.80
792;DHT22;379;49.022;12.148;2023-05-07T13:15:23;22.50;53.30
792;DHT22;379;49.022;12.148;2023-05-07T13:17:51;22.50;52.90
792;DHT22;379;49.022;12.148;2023-05-07T13:20:18;22.50;52.70
792;DHT22;379;49.022;12.148;2023-05-07T13:22:44;22.50;52.70
792;DHT22;379;49.022;12.148;2023-05-07T13:25:11;22.50;52.40
792;DHT22;379;49.022;12.148;2023-05-07T13:27:38;22.60;53.10
792;DHT22;379;49.022;12.148;2023-05-07T13:30:06;22.70;53.10
792;DHT22;379;49.022;12.148;2023-05-07T13:32:32;22.70;52.80
792;DHT22;379;49.022;12.148;2023-05-07T13:35:01;22.80;53.80
792;DHT22;379;49.022;12.148;2023-05-07T13:37:27;23.00;53.00
792;DHT22;379;49.022;12.148;2023-05-07T13:39:54;23.10;52.10
792;DHT22;379;49.022;12.148;2023-05-07T13:42:21;23.10;51.20
792;DHT22;379;49.022;12.148;2023-05-07T13:44:47;23.10;51.30
792;DHT22;379;49.022;12.148;2023-05-07T13:47:14;23.00;51.10
792;DHT22;379;49.022;12.148;2023-05-07T13:49:41;23.20;51.80
792;DHT22;379;49.022;12.148;2023-05-07T13:52:09;23.30;50.60
792;DHT22;379;49.022;12.148;2023-05-07T13:54:36;23.40;50.10
792;DHT22;379;49.022;12.148;2023-05-07T13:57:03;23.40;49.50
792;DHT22;379;49.022;12.148;2023-05-07T13:59:30;23.30;49.60
792;DHT22;379;49.022;12.148;2023-05-07T14:01:56;23.10;49.60
792;DHT22;379;49.022;12.148;2023-05-07T14:04:23;23.00;49.20
792;DHT22;379;49.022;12.148;2023-05-07T14:06:50;22.80;49.30
792;DHT22;379;49.022;12.148;2023-05-07T14:09:18;22.80;49.70
792;DHT22;379;49.022;12.148;2023-05-07T14:11:44;22.70;49.50
792;DHT22;379;49.022;12.148;2023-05-07T14:14:13;22.80;50.00
792;DHT22;379;49.022;12.148;2023-05-07T14:16:39;22.80;50.50
792;DHT22;379;49.022;12.148;2023-05-07T14:19:06;22.70;50.20
792;DHT22;379;49.022;12.148;2023-05-07T14:21:33;22.60;50.00
792;DHT22;379;49.022;12.148;2023-05-07T14:23:59;22.70;50.80
792;DHT22;379;49.022;12.148;2023-05-07T14:26:27;22.70;50.80
792;DHT22;379;49.022;12.148;2023-05-07T14:28:54;22.70;50.50
792;DHT22;379;49.022;12.148;2023-05-07T14:31:23;22.80;51.10
792;DHT22;379;49.022;12.148;2023-05-07T14:33:50;22.80;51.40
792;DHT22;379;49.022;12.148;2023-05-07T14:36:17;22.70;51.00
792;DHT22;379;49.022;12.148;2023-05-07T14:38:45;22.80;51.10
792;DHT22;379;49.022;12.148;2023-05-07T14:41:12;22.80;51.30
792;DHT22;379;49.022;12.148;2023-05-07T14:43:40;22.90;51.10
792;DHT22;379;49.022;12.148;2023-05-07T14:46:06;22.90;51.30
792;DHT22;379;49.022;12.148;2023-05-07T14:48:33;22.90;50.70
792;DHT22;379;49.022;12.148;2023-05-07T14:51:00;22.90;50.70
792;DHT22;379;49.022;12.148;2023-05-07T14:53:27;22.80;50.90
792;DHT22;379;49.022;12.148;2023-05-07T14:55:54;22.80;50.70
792;DHT22;379;49.022;12.148;2023-05-07T14:58:20;22.90;51.90
792;DHT22;379;49.022;12.148;2023-05-07T15:00:48;22.80;51.20
792;DHT22;379;49.022;12.148;2023-05-07T15:03:15;22.70;51.40
792;DHT22;379;49.022;12.148;2023-05-07T15:05:42;22.70;52.00
792;DHT22;379;49.022;12.148;2023-05-07T15:08:09;22.60;52.00
792;DHT22;379;49.022;12.148;2023-05-07T15:10:36;22.50;52.20
792;DHT22;379;49.022;12.148;2023-05-07T15:13:06;22.40;51.90
792;DHT22;379;49.022;12.148;2023-05-07T15:15:33;22.30;52.60
792;DHT22;379;49.022;12.148;2023-05-07T15:18:02;22.30;52.40
792;DHT22;379;49.022;12.148;2023-05-07T15:20:29;22.20;52.60
792;DHT22;379;49.022;12.148;2023-05-07T15:22:56;22.20;52.40
792;DHT22;379;49.022;12.148;2023-05-07T15:25:23;22.20;52.30
792;DHT22;379;49.022;12.148;2023-05-07T15:27:50;22.30;52.50
792;DHT22;379;49.022;12.148;2023-05-07T15:30:18;22.30;52.70
792;DHT22;379;49.022;12.148;2023-05-07T15:32:45;22.40;52.90
792;DHT22;379;49.022;12.148;2023-05-07T15:35:14;22.30;51.60
792;DHT22;379;49.022;12.148;2023-05-07T15:37:40;22.20;51.60
792;DHT22;379;49.022;12.148;2023-05-07T15:40:08;21.90;52.00
792;DHT22;379;49.022;12.148;2023-05-07T15:42:36;21.80;52.30
792;DHT22;379;49.022;12.148;2023-05-07T15:45:03;21.80;53.30
792;DHT22;379;49.022;12.148;2023-05-07T15:47:33;21.80;54.10
792;DHT22;379;49.022;12.148;2023-05-07T15:50:00;21.80;54.30
792;DHT22;379;49.022;12.148;2023-05-07T15:52:28;21.90;54.20
792;DHT22;379;49.022;12.148;2023-05-07T15:54:55;22.00;54.40
792;DHT22;379;49.022;12.148;2023-05-07T15:57:22;22.00;53.70
792;DHT22;379;49.022;12.148;2023-05-07T15:59:49;22.00;54.00
792;DHT22;379;49.022;12.148;2023-05-07T16:02:16;22.00;54.30
792;DHT22;379;49.022;12.148;2023-05-07T16:04:42;21.80;54.30
792;DHT22;379;49.022;12.148;2023-05-07T16:07:09;21.80;54.30
792;DHT22;379;49.022;12.148;2023-05-07T16:09:37;21.70;54.40
792;DHT22;379;49.022;12.148;2023-05-07T16:12:04;21.50;54.70
792;DHT22;379;49.022;12.148;2023-05-07T16:14:31;21.40;54.70
792;DHT22;379;49.022;12.148;2023-05-07T16:16:58;21.30;54.70
792;DHT22;379;49.022;12.148;2023-05-07T16:19:26;21.20;54.80
792;DHT22;379;49.022;12.148;2023-05-07T16:21:52;21.20;55.10
792;DHT22;379;49.022;12.148;2023-05-07T16:24:19;21.20;55.40
792;DHT22;379;49.022;12.148;2023-05-07T16:26:47;21.10;55.70